Time;durP1;ratioP1;P1;durP2;ratioP2;P2;SDS_P1;SDS_P2;PMS_P1;PMS_P2;Temp;Humidity;BMP_temperature;BMP_pressure;BME280_temperature;BME280_humidity;BME280_pressure;Samples;Min_cycle;Max_cycle;Signal;HPM_P1;HPM_P2
2023/05/11 00:01:52;;;;;;;6.78;0.63;;;12.90;99.90;;;;;;4948945;28;20487;-65
2023/05/11 00:04:18;;;;;;;0.73;0.50;;;12.90;99.90;;;;;;4952938;28;20078;-66
2023/05/11 00:06:43;;;;;;;2.10;0.80;;;12.80;99.90;;;;;;4950296;28;20035;-66
2023/05/11 00:09:10;;;;;;;4.90;0.73;;;12.80;99.90;;;;;;4952678;28;20078;-66
2023/05/11 00:11:36;;;;;;;1.10;0.80;;;12.70;99.90;;;;;;4950509;28;20890;-66
2023/05/11 00:14:02;;;;;;;3.15;0.40;;;12.60;99.90;;;;;;4968118;28;20042;-66
2023/05/11 00:16:28;;;;;;;1.02;0.60;;;12.40;99.90;;;;;;4964887;28;20044;-66
2023/05/11 00:18:54;;;;;;;1.27;0.70;;;12.40;99.90;;;;;;4967395;28;20118;-65
2023/05/11 00:21:21;;;;;;;0.90;0.45;;;12.30;99.90;;;;;;4948615;28;20063;-66
2023/05/11 00:23:48;;;;;;;2.22;0.70;;;12.20;99.90;;;;;;4967281;28;20460;-66
2023/05/11 00:26:14;;;;;;;0.65;0.52;;;12.20;99.90;;;;;;4949699;28;20110;-66
2023/05/11 00:28:40;;;;;;;1.27;0.57;;;12.20;99.90;;;;;;4952472;28;20115;-65
2023/05/11 00:31:05;;;;;;;0.85;0.50;;;12.20;99.90;;;;;;4951314;28;20039;-65
2023/05/11 00:33:31;;;;;;;0.35;0.35;;;12.20;99.90;;;;;;4951516;29;20035;-65
2023/05/11 00:35:57;;;;;;;3.25;0.55;;;12.20;99.90;;;;;;4952705;28;20039;-65
2023/05/11 00:38:23;;;;;;;2.08;0.65;;;12.20;99.90;;;;;;4964517;28;20040;-66
2023/05/11 00:40:49;;;;;;;1.50;0.95;;;12.10;99.90;;;;;;4952472;28;20119;-66
2023/05/11 00:43:15;;;;;;;2.53;0.77;;;12.10;99.90;;;;;;4964542;28;20055;-66
2023/05/11 00:45:42;;;;;;;1.52;0.98;;;12.20;99.90;;;;;;4952702;28;20121;-66
2023/05/11 00:48:07;;;;;;;2.38;0.93;;;12.20;99.90;;;;;;4964882;28;20055;-66
2023/05/11 00:50:34;;;;;;;2.75;0.80;;;12.10;99.90;;;;;;4955931;28;20071;-66
2023/05/11 00:53:01;;;;;;;0.68;0.40;;;12.10;99.90;;;;;;4953426;28;20139;-65
2023/05/11 00:55:27;;;;;;;0.80;0.80;;;12.10;99.90;;;;;;4955052;29;20494;-66
2023/05/11 00:57:53;;;;;;;1.67;0.77;;;12.10;99.90;;;;;;4968316;28;20043;-65
2023/05/11 01:00:19;;;;;;;1.02;0.70;;;12.10;99.90;;;;;;4970938;28;20023;-66
2023/05/11 01:02:45;;;;;;;3.38;0.40;;;12.10;99.90;;;;;;4968057;28;20087;-65
2023/05/11 01:05:11;;;;;;;24.38;0.90;;;12.20;99.90;;;;;;4956530;28;20031;-66
2023/05/11 01:07:45;;;;;;;1.27;0.47;;;12.20;99.90;;;;;;4947054;28;20044;-66
2023/05/11 01:10:38;;;;;;;0.98;0.57;;;12.20;99.90;;;;;;4951010;28;20028;-66
2023/05/11 01:13:25;;;;;;;1.38;0.73;;;12.10;99.90;;;;;;4950041;29;20415;-66
2023/05/11 01:15:55;;;;;;;1.73;0.68;;;12.00;99.90;;;;;;4925440;29;20175;-68
2023/05/11 01:18:32;;;;;;;0.47;0.40;;;12.00;99.90;;;;;;4981770;28;20110;-66
2023/05/11 01:21:00;;;;;;;1.60;0.80;;;11.90;99.90;;;;;;4970056;28;20271;-66
2023/05/11 01:24:00;;;;;;;4.25;2.22;;;11.90;99.90;;;;;;4951917;29;20047;-65
2023/05/11 01:27:22;;;;;;;2.22;0.82;;;12.00;99.90;;;;;;4967618;28;20040;-66
2023/05/11 01:29:56;;;;;;;2.80;1.05;;;12.00;99.90;;;;;;4942732;29;20054;-66
2023/05/11 01:32:30;;;;;;;1.92;0.70;;;12.00;99.90;;;;;;4952594;28;20035;-66
2023/05/11 01:35:09;;;;;;;6.70;1.27;;;12.00;99.90;;;;;;4955510;28;20538;-66
2023/05/11 01:37:40;;;;;;;2.15;0.70;;;12.00;99.90;;;;;;4967182;28;20054;-66
2023/05/11 01:40:14;;;;;;;1.13;0.83;;;12.00;99.90;;;;;;4969110;28;20074;-66
2023/05/11 01:42:46;;;;;;;1.88;0.90;;;12.00;99.90;;;;;;4961811;28;20482;-66
2023/05/11 01:45:14;;;;;;;3.00;1.30;;;12.00;99.90;;;;;;4955269;28;20533;-66
2023/05/11 01:47:42;;;;;;;1.38;0.88;;;12.00;99.90;;;;;;4967566;28;20047;-66
2023/05/11 01:50:09;;;;;;;1.70;1.30;;;12.00;99.90;;;;;;4969555;28;20034;-66
2023/05/11 01:52:37;;;;;;;2.47;0.93;;;11.90;99.90;;;;;;4951111;28;20261;-66
2023/05/11 01:55:05;;;;;;;2.22;0.95;;;11.80;99.90;;;;;;4970357;28;20391;-64
2023/05/11 01:57:32;;;;;;;1.75;1.02;;;11.80;99.90;;;;;;4967494;28;20110;-66
2023/05/11 01:59:59;;;;;;;1.70;0.88;;;11.70;99.90;;;;;;4968694;28;20054;-66
2023/05/11 02:02:26;;;;;;;3.00;1.40;;;11.70;99.90;;;;;;4951228;28;20039;-66
2023/05/11 02:04:53;;;;;;;2.33;1.05;;;11.70;99.90;;;;;;4969963;28;20126;-66
2023/05/11 02:07:21;;;;;;;1.25;0.77;;;11.80;99.90;;;;;;4967224;28;20062;-66
2023/05/11 02:09:49;;;;;;;2.08;0.95;;;11.80;99.90;;;;;;4969571;28;20041;-65
2023/05/11 02:12:18;;;;;;;1.55;0.80;;;11.80;99.90;;;;;;4951968;28;20708;-66
2023/05/11 02:14:46;;;;;;;2.17;1.20;;;11.90;99.90;;;;;;4964859;28;20496;-66
2023/05/11 02:17:14;;;;;;;0.98;0.50;;;11.80;99.90;;;;;;4957050;28;20444;-64
2023/05/11 02:19:43;;;;;;;1.05;0.70;;;11.80;99.90;;;;;;4969211;28;20439;-66
2023/05/11 02:22:10;;;;;;;0.85;0.65;;;11.90;99.90;;;;;;4967088;28;20035;-66
2023/05/11 02:24:36;;;;;;;2.47;0.90;;;11.80;99.90;;;;;;4945763;29;20094;-66
2023/05/11 02:27:02;;;;;;;1.40;0.70;;;11.80;99.90;;;;;;4950941;29;20074;-66
2023/05/11 02:29:28;;;;;;;1.73;0.80;;;11.70;99.90;;;;;;4969115;28;20463;-66
2023/05/11 02:32:06;;;;;;;1.35;0.70;;;11.70;99.90;;;;;;4967135;28;20035;-66
2023/05/11 02:34:41;;;;;;;0.77;0.55;;;11.70;99.90;;;;;;4955058;28;20035;-66
2023/05/11 02:37:13;;;;;;;2.92;0.90;;;11.70;99.90;;;;;;4966601;28;20067;-66
2023/05/11 02:39:44;;;;;;;4.88;0.70;;;11.70;99.90;;;;;;4961549;28;20039;-66
2023/05/11 02:42:19;;;;;;;;;;;11.70;99.90;;;;;;4966826;28;20118;-65
2023/05/11 02:44:55;;;;;;;2.25;0.55;;;11.70;99.90;;;;;;4968511;28;19914;-65
2023/05/11 02:47:26;;;;;;;2.53;1.15;;;11.70;99.90;;;;;;4950318;28;20032;-65
2023/05/11 02:49:56;;;;;;;1.20;0.75;;;11.60;99.90;;;;;;4952914;29;20038;-65
2023/05/11 02:52:26;;;;;;;0.83;0.70;;;11.50;99.90;;;;;;4965583;28;20039;-65
2023/05/11 02:54:53;;;;;;;1.25;0.68;;;11.50;99.90;;;;;;4952794;29;20282;-66
2023/05/11 02:57:19;;;;;;;1.38;0.63;;;11.40;99.90;;;;;;4935581;28;20040;-65
2023/05/11 02:59:46;;;;;;;0.93;0.60;;;11.40;99.90;;;;;;4954013;28;20407;-65
2023/05/11 03:02:12;;;;;;;0.60;0.50;;;11.50;99.90;;;;;;4946286;28;20397;-66
2023/05/11 03:04:38;;;;;;;1.05;0.80;;;11.50;99.90;;;;;;4939511;29;20031;-65
2023/05/11 03:07:06;;;;;;;3.95;0.38;;;11.50;99.90;;;;;;4967767;23;20043;-64
2023/05/11 03:09:33;;;;;;;2.28;0.82;;;11.50;99.90;;;;;;4977619;28;20031;-64
2023/05/11 03:12:01;;;;;;;0.88;0.55;;;11.50;99.90;;;;;;4983751;28;20394;-65
2023/05/11 03:14:27;;;;;;;54.17;16.27;;;11.40;99.90;;;;;;4988375;28;20143;-65
2023/05/11 03:16:55;;;;;;;1.55;1.10;;;11.40;99.90;;;;;;4968023;28;20032;-66
2023/05/11 03:19:21;;;;;;;1.10;0.60;;;11.40;99.90;;;;;;4984144;28;20038;-65
2023/05/11 03:21:51;;;;;;;1.08;0.88;;;11.30;99.90;;;;;;4973305;28;20121;-64
2023/05/11 03:24:17;;;;;;;2.30;1.73;;;11.20;99.90;;;;;;4972118;28;20039;-65
2023/05/11 03:26:44;;;;;;;1.13;0.52;;;11.10;99.90;;;;;;4991876;28;20389;-64
2023/05/11 03:29:13;;;;;;;2.35;0.95;;;11.10;99.90;;;;;;4987772;28;20083;-64
2023/05/11 03:31:39;;;;;;;3.00;0.88;;;11.00;99.90;;;;;;4990841;28;20041;-64
2023/05/11 03:34:05;;;;;;;1.02;0.55;;;10.90;99.90;;;;;;4972037;28;20030;-66
2023/05/11 03:36:32;;;;;;;1.13;0.52;;;10.90;99.90;;;;;;4986030;28;20035;-65
2023/05/11 03:39:00;;;;;;;1.20;0.70;;;10.90;99.90;;;;;;4992071;28;20085;-65
2023/05/11 03:41:30;;;;;;;1.83;0.73;;;10.90;99.90;;;;;;4990232;28;20057;-64
2023/05/11 03:43:58;;;;;;;0.98;0.75;;;11.00;99.90;;;;;;4989752;28;20486;-64
2023/05/11 03:46:24;;;;;;;2.60;0.90;;;11.00;99.90;;;;;;4968149;28;20530;-64
2023/05/11 03:48:51;;;;;;;1.17;0.65;;;10.90;99.90;;;;;;4986106;28;20443;-64
2023/05/11 03:51:16;;;;;;;1.42;0.68;;;10.90;99.90;;;;;;4968371;28;20066;-64
2023/05/11 03:53:42;;;;;;;1.42;0.95;;;10.90;99.90;;;;;;4978111;28;20161;-65
2023/05/11 03:56:08;;;;;;;2.60;1.35;;;11.00;99.90;;;;;;4968944;28;20402;-65
2023/05/11 03:58:39;;;;;;;5.55;1.73;;;11.00;99.90;;;;;;4981032;28;20485;-65
2023/05/11 04:01:07;;;;;;;1.73;1.23;;;10.90;99.90;;;;;;4977030;28;20073;-65
2023/05/11 04:03:33;;;;;;;1.92;0.93;;;11.00;99.90;;;;;;4988548;28;20521;-66
2023/05/11 04:05:59;;;;;;;2.22;1.00;;;10.90;99.90;;;;;;4973897;28;20041;-66
2023/05/11 04:08:24;;;;;;;1.63;0.70;;;10.90;99.90;;;;;;4970980;28;20042;-66
2023/05/11 04:10:53;;;;;;;1.92;0.93;;;10.90;99.90;;;;;;4951673;28;20031;-65
2023/05/11 04:13:18;;;;;;;1.35;0.95;;;10.80;99.90;;;;;;4973157;28;20029;-65
2023/05/11 04:15:44;;;;;;;1.70;0.77;;;10.90;99.90;;;;;;4974370;28;20034;-65
2023/05/11 04:18:10;;;;;;;2.15;1.17;;;10.80;99.90;;;;;;4973312;28;20633;-66
2023/05/11 04:20:35;;;;;;;6.03;1.25;;;10.80;99.90;;;;;;4968826;28;20035;-66
2023/05/11 04:23:01;;;;;;;1.55;0.82;;;10.80;99.90;;;;;;4959150;28;20443;-65
2023/05/11 04:25:27;;;;;;;2.83;1.20;;;10.80;99.90;;;;;;4974621;28;20024;-66
2023/05/11 04:27:53;;;;;;;1.27;0.73;;;10.80;99.90;;;;;;4973479;28;20405;-66
2023/05/11 04:30:20;;;;;;;1.33;0.80;;;10.90;99.90;;;;;;4976595;28;20066;-66
2023/05/11 04:32:45;;;;;;;1.67;0.80;;;11.00;99.90;;;;;;4973238;28;20049;-65
2023/05/11 04:35:11;;;;;;;3.97;1.58;;;11.10;99.90;;;;;;4977067;28;20414;-65
2023/05/11 04:37:37;;;;;;;3.08;1.33;;;11.20;99.90;;;;;;4973093;28;20066;-66
2023/05/11 04:40:03;;;;;;;12.38;4.47;;;11.30;99.90;;;;;;4978785;28;20022;-65
2023/05/11 04:42:30;;;;;;;18.10;6.30;;;11.30;99.90;;;;;;4968428;28;20102;-65
2023/05/11 04:44:55;;;;;;;3.97;1.88;;;11.50;99.90;;;;;;4981577;28;20039;-65
2023/05/11 04:47:21;;;;;;;5.78;2.05;;;11.40;99.90;;;;;;4986873;28;20541;-65
2023/05/11 04:49:47;;;;;;;1.33;0.70;;;11.30;99.90;;;;;;4953903;28;20128;-66
2023/05/11 04:52:13;;;;;;;2.67;1.13;;;11.20;99.90;;;;;;4977870;28;20078;-65
2023/05/11 04:54:38;;;;;;;11.50;1.63;;;11.10;99.90;;;;;;4969205;28;20042;-65
2023/05/11 04:57:04;;;;;;;3.63;1.02;;;11.10;99.90;;;;;;4981988;28;20035;-65
2023/05/11 04:59:30;;;;;;;1.92;1.08;;;11.10;99.90;;;;;;4972400;28;20034;-65
2023/05/11 05:01:56;;;;;;;1.90;1.20;;;11.10;99.90;;;;;;4987820;28;20026;-66
2023/05/11 05:04:24;;;;;;;1.88;1.10;;;11.20;99.90;;;;;;4970981;28;20042;-65
2023/05/11 05:06:50;;;;;;;3.15;1.17;;;11.30;99.90;;;;;;4980638;28;20038;-65
2023/05/11 05:09:16;;;;;;;1.67;0.90;;;11.40;99.90;;;;;;4985713;28;20489;-66
2023/05/11 05:11:41;;;;;;;23.50;9.70;;;11.40;99.90;;;;;;4978623;28;20034;-66
2023/05/11 05:14:07;;;;;;;6.32;2.40;;;11.50;99.90;;;;;;4986277;28;20064;-66
2023/05/11 05:16:33;;;;;;;3.83;1.48;;;11.50;99.90;;;;;;4978228;28;20046;-66
2023/05/11 05:18:59;;;;;;;4.63;1.58;;;11.60;99.90;;;;;;4986903;28;20493;-67
2023/05/11 05:21:24;;;;;;;2.15;0.80;;;11.70;99.90;;;;;;4976604;28;20097;-67
2023/05/11 05:23:50;;;;;;;3.00;1.38;;;11.80;99.90;;;;;;4977074;28;20022;-66
2023/05/11 05:26:16;;;;;;;1.95;0.77;;;11.90;99.90;;;;;;4973554;28;20070;-66
2023/05/11 05:28:42;;;;;;;1.38;1.05;;;12.00;99.90;;;;;;4989955;28;20030;-66
2023/05/11 05:31:07;;;;;;;0.68;0.55;;;12.10;99.90;;;;;;4975339;28;20097;-66
2023/05/11 05:33:33;;;;;;;1.00;0.70;;;12.10;99.90;;;;;;4981274;28;20641;-66
2023/05/11 05:35:59;;;;;;;4.25;1.30;;;12.20;99.90;;;;;;4975079;28;20038;-67
2023/05/11 05:38:25;;;;;;;6.53;2.35;;;12.30;99.90;;;;;;4992493;28;20038;-66
2023/05/11 05:40:50;;;;;;;3.75;2.67;;;12.40;99.90;;;;;;4976337;28;20077;-67
2023/05/11 05:43:16;;;;;;;4.47;1.02;;;12.50;99.90;;;;;;4990733;28;20481;-67
2023/05/11 05:45:42;;;;;;;3.10;1.38;;;12.60;99.90;;;;;;4977225;28;20062;-67
2023/05/11 05:48:08;;;;;;;2.28;1.40;;;12.60;99.90;;;;;;4991632;28;20030;-68
2023/05/11 05:50:34;;;;;;;3.53;1.58;;;12.50;99.90;;;;;;4976902;28;20110;-67
2023/05/11 05:53:00;;;;;;;2.08;1.02;;;12.70;99.90;;;;;;4990302;28;20134;-68
2023/05/11 05:55:26;;;;;;;4.22;1.50;;;12.80;99.90;;;;;;4973740;28;20086;-67
2023/05/11 05:57:52;;;;;;;3.65;1.90;;;12.80;99.90;;;;;;4973680;28;20034;-67
2023/05/11 06:00:18;;;;;;;3.97;1.70;;;12.90;99.90;;;;;;4975528;28;20431;-67
2023/05/11 06:02:43;;;;;;;4.07;1.95;;;13.00;99.90;;;;;;4987263;28;20023;-67
2023/05/11 06:05:09;;;;;;;3.65;1.63;;;13.00;99.90;;;;;;4977627;28;20039;-67
2023/05/11 06:07:35;;;;;;;4.35;1.38;;;13.10;99.90;;;;;;5001383;28;20030;-68
2023/05/11 06:10:02;;;;;;;3.88;2.08;;;13.10;99.90;;;;;;4972010;28;20037;-67
2023/05/11 06:12:27;;;;;;;3.88;1.77;;;13.20;99.90;;;;;;4983560;28;20051;-67
2023/05/11 06:14:53;;;;;;;3.83;1.58;;;13.30;99.90;;;;;;4964529;28;20142;-67
2023/05/11 06:17:19;;;;;;;3.13;1.75;;;13.30;99.90;;;;;;4982026;28;20046;-67
2023/05/11 06:19:45;;;;;;;6.18;1.58;;;13.40;99.90;;;;;;4985109;28;20039;-66
2023/05/11 06:22:10;;;;;;;5.63;1.98;;;13.30;99.90;;;;;;4981840;28;20080;-67
2023/05/11 06:24:36;;;;;;;2.10;1.15;;;13.50;99.90;;;;;;4984877;28;20557;-67
2023/05/11 06:27:02;;;;;;;5.90;2.58;;;13.40;99.90;;;;;;4984946;28;20057;-68
2023/05/11 06:29:28;;;;;;;4.72;2.65;;;13.60;99.90;;;;;;4984256;28;20359;-67
2023/05/11 06:31:54;;;;;;;3.53;2.42;;;13.70;99.90;;;;;;4981469;28;20038;-67
2023/05/11 06:34:21;;;;;;;10.90;3.53;;;13.70;99.90;;;;;;4984669;28;20550;-67
2023/05/11 06:36:50;;;;;;;5.47;2.67;;;13.80;99.90;;;;;;4980382;28;20042;-67
2023/05/11 06:39:16;;;;;;;4.22;2.53;;;13.80;99.90;;;;;;4983322;28;20023;-67
2023/05/11 06:41:41;;;;;;;6.47;2.22;;;13.80;99.90;;;;;;4981734;28;20335;-67
2023/05/11 06:44:07;;;;;;;6.30;2.50;;;13.80;99.90;;;;;;4985121;28;20117;-67
2023/05/11 06:46:33;;;;;;;7.53;2.83;;;13.90;99.90;;;;;;4980804;28;20054;-67
2023/05/11 06:48:59;;;;;;;4.85;2.17;;;13.90;99.90;;;;;;4986388;28;20210;-67
2023/05/11 06:51:25;;;;;;;7.70;2.70;;;14.00;99.90;;;;;;4979658;28;20031;-68
2023/05/11 06:53:51;;;;;;;5.43;2.20;;;13.90;99.90;;;;;;4988458;28;20085;-67
2023/05/11 06:56:17;;;;;;;5.90;2.60;;;13.80;99.90;;;;;;4977575;28;20462;-66
2023/05/11 06:58:42;;;;;;;4.90;2.30;;;14.00;99.90;;;;;;4988582;28;20036;-66
2023/05/11 07:01:09;;;;;;;7.75;2.67;;;13.90;99.90;;;;;;4971323;28;20126;-67
2023/05/11 07:03:35;;;;;;;5.47;2.83;;;13.80;99.90;;;;;;4998009;28;20098;-67
2023/05/11 07:06:02;;;;;;;3.97;2.25;;;14.00;99.90;;;;;;4974859;28;20525;-67
2023/05/11 07:08:27;;;;;;;2.53;1.58;;;14.10;99.90;;;;;;5005730;28;20034;-67
2023/05/11 07:10:53;;;;;;;1.80;1.27;;;14.10;99.90;;;;;;4975490;28;20370;-67
2023/05/11 07:13:19;;;;;;;2.20;1.20;;;14.20;99.90;;;;;;4988820;28;20029;-67
2023/05/11 07:15:45;;;;;;;4.45;1.80;;;14.20;99.90;;;;;;4965206;28;20431;-67
2023/05/11 07:18:10;;;;;;;3.00;1.70;;;14.20;99.90;;;;;;4963750;28;20031;-67
2023/05/11 07:20:36;;;;;;;4.13;1.98;;;14.10;99.90;;;;;;4953518;28;20049;-67
2023/05/11 07:23:02;;;;;;;4.65;1.52;;;14.30;99.90;;;;;;4983844;28;20026;-67
2023/05/11 07:25:29;;;;;;;4.72;2.58;;;14.30;99.90;;;;;;4972730;28;20475;-67
2023/05/11 07:27:54;;;;;;;4.47;1.73;;;14.40;99.90;;;;;;4989767;28;20530;-67
2023/05/11 07:30:21;;;;;;;3.60;1.55;;;14.40;99.90;;;;;;4977714;28;20035;-67
2023/05/11 07:32:47;;;;;;;4.47;1.90;;;14.50;99.90;;;;;;4980778;28;20426;-67
2023/05/11 07:35:14;;;;;;;5.40;2.03;;;14.50;99.90;;;;;;4962103;28;20647;-67
2023/05/11 07:37:40;;;;;;;4.10;1.83;;;14.50;99.90;;;;;;4988917;28;20106;-67
2023/05/11 07:40:07;;;;;;;5.00;2.35;;;14.50;99.90;;;;;;4978611;28;20027;-67
2023/05/11 07:42:33;;;;;;;10.68;2.35;;;14.50;99.90;;;;;;5003411;28;20041;-67
2023/05/11 07:44:58;;;;;;;4.45;1.90;;;14.60;99.90;;;;;;4979980;28;20027;-67
2023/05/11 07:47:24;;;;;;;5.57;2.42;;;14.70;99.90;;;;;;4987380;28;20409;-67
2023/05/11 07:49:50;;;;;;;3.80;1.38;;;14.70;99.90;;;;;;4982902;28;20038;-67
2023/05/11 07:52:16;;;;;;;8.57;2.60;;;14.80;99.90;;;;;;4999219;28;20077;-67
2023/05/11 07:54:43;;;;;;;6.88;2.30;;;14.90;99.90;;;;;;4982591;28;20027;-68
2023/05/11 07:57:12;;;;;;;3.55;2.05;;;14.90;99.90;;;;;;4989893;28;20500;-67
2023/05/11 07:59:39;;;;;;;6.82;3.10;;;14.80;99.90;;;;;;4983750;28;20101;-68
2023/05/11 08:02:08;;;;;;;5.32;2.45;;;14.50;99.90;;;;;;4992468;28;20474;-67
2023/05/11 08:04:35;;;;;;;5.82;1.52;;;14.80;99.90;;;;;;4983417;28;20229;-68
2023/05/11 08:07:01;;;;;;;5.13;2.42;;;14.90;99.90;;;;;;4988145;28;20031;-67
2023/05/11 08:09:27;;;;;;;7.40;2.15;;;14.50;99.90;;;;;;4999490;28;20033;-68
2023/05/11 08:11:55;;;;;;;6.80;2.08;;;14.80;99.90;;;;;;4975154;28;20034;-68
2023/05/11 08:14:21;;;;;;;5.72;2.22;;;14.90;99.90;;;;;;4984473;28;20027;-67
2023/05/11 08:16:48;;;;;;;7.45;2.80;;;14.50;99.90;;;;;;4979584;28;20394;-68
2023/05/11 08:19:14;;;;;;;6.50;1.75;;;14.90;99.90;;;;;;4986240;28;20534;-68
2023/05/11 08:21:40;;;;;;;6.82;2.63;;;14.80;99.90;;;;;;4979248;28;20134;-68
2023/05/11 08:24:06;;;;;;;6.05;2.50;;;14.90;99.90;;;;;;4985612;28;20061;-68
2023/05/11 08:26:32;;;;;;;4.95;2.17;;;14.30;99.90;;;;;;4976002;28;20051;-68
2023/05/11 08:28:58;;;;;;;4.07;1.80;;;14.50;99.90;;;;;;4999067;28;20034;-67
2023/05/11 08:31:24;;;;;;;4.05;1.63;;;15.00;99.90;;;;;;4977118;28;20038;-68
2023/05/11 08:33:49;;;;;;;4.60;1.60;;;15.00;99.90;;;;;;4989284;28;20041;-68
2023/05/11 08:36:15;;;;;;;5.82;2.15;;;15.20;99.90;;;;;;4974983;28;20646;-68
2023/05/11 08:38:41;;;;;;;4.75;1.60;;;15.10;99.90;;;;;;4989429;28;20050;-68
2023/05/11 08:41:07;;;;;;;4.22;2.50;;;15.20;99.90;;;;;;4974112;28;20034;-68
2023/05/11 08:43:38;;;;;;;8.15;2.92;;;15.20;99.90;;;;;;4989747;28;20513;-68
2023/05/11 08:46:08;;;;;;;;;;;15.00;99.90;;;;;;4975469;28;20049;-68
2023/05/11 08:48:34;;;;;;;3.28;1.85;;;15.10;99.90;;;;;;4982113;28;19914;-68
2023/05/11 08:51:03;;;;;;;6.00;2.40;;;15.10;99.90;;;;;;4975551;28;20042;-68
2023/05/11 08:53:29;;;;;;;3.42;1.95;;;15.00;99.90;;;;;;4989154;28;20062;-68
2023/05/11 08:55:58;;;;;;;6.30;2.55;;;15.10;99.90;;;;;;4975764;28;20034;-68
2023/05/11 08:58:25;;;;;;;8.82;2.03;;;15.30;99.90;;;;;;5002846;28;20035;-68
2023/05/11 09:00:51;;;;;;;4.07;2.40;;;15.20;99.90;;;;;;4975569;28;20445;-68
2023/05/11 09:03:21;;;;;;;5.25;2.42;;;15.30;99.90;;;;;;4988198;28;20064;-67
2023/05/11 09:05:48;;;;;;;9.55;2.55;;;15.30;99.90;;;;;;4975976;28;20041;-67
2023/05/11 09:08:18;;;;;;;4.00;1.90;;;15.50;99.90;;;;;;4986686;28;20445;-67
2023/05/11 09:10:44;;;;;;;5.20;2.10;;;15.20;99.90;;;;;;4978171;28;20069;-67
2023/05/11 09:13:10;;;;;;;4.15;2.30;;;15.30;99.90;;;;;;4991897;28;20501;-68
2023/05/11 09:15:36;;;;;;;4.70;2.25;;;15.30;99.90;;;;;;4966895;28;20073;-68
2023/05/11 09:18:02;;;;;;;4.57;2.53;;;15.50;99.90;;;;;;4983731;28;20069;-68
2023/05/11 09:20:32;;;;;;;5.95;2.33;;;15.50;99.90;;;;;;4980280;28;20491;-68
2023/05/11 09:22:59;;;;;;;5.45;2.72;;;15.60;99.90;;;;;;4982335;28;20054;-66
2023/05/11 09:25:29;;;;;;;6.85;2.95;;;15.70;99.90;;;;;;4978934;28;20127;-68
2023/05/11 09:27:58;;;;;;;7.03;3.70;;;15.80;99.90;;;;;;4974477;28;20057;-68
2023/05/11 09:30:23;;;;;;;7.45;2.47;;;15.60;99.90;;;;;;4978721;28;20813;-67
2023/05/11 09:32:58;;;;;;;5.50;1.95;;;15.40;99.90;;;;;;4983218;28;20122;-69
2023/05/11 09:35:32;;;;;;;14.82;2.55;;;14.90;99.90;;;;;;4965196;28;20077;-67
2023/05/11 09:38:09;;;;;;;4.35;2.47;;;15.30;99.90;;;;;;4981920;28;20482;-67
2023/05/11 09:40:42;;;;;;;4.53;2.55;;;15.10;99.90;;;;;;4979784;28;20133;-67
2023/05/11 09:43:19;;;;;;;7.35;3.03;;;15.20;99.90;;;;;;4979893;28;20683;-67
2023/05/11 09:45:53;;;;;;;3.80;2.30;;;15.00;99.90;;;;;;4976124;28;20405;-67
2023/05/11 09:48:19;;;;;;;3.85;2.13;;;15.00;99.90;;;;;;4981433;28;20416;-67
2023/05/11 09:50:51;;;;;;;7.70;2.75;;;14.50;99.90;;;;;;4979884;28;20114;-68
2023/05/11 09:53:17;;;;;;;4.95;2.20;;;14.80;99.90;;;;;;4989868;28;20090;-67
2023/05/11 09:55:54;;;;;;;5.55;3.15;;;15.00;99.90;;;;;;4979560;28;20045;-67
2023/05/11 09:58:20;;;;;;;4.55;2.58;;;15.20;99.90;;;;;;4989764;28;20641;-67
2023/05/11 10:00:52;;;;;;;6.85;2.40;;;15.50;99.90;;;;;;4979680;28;20030;-67
2023/05/11 10:03:18;;;;;;;5.10;2.38;;;14.60;99.90;;;;;;4997935;28;20030;-67
2023/05/11 10:05:59;;;;;;;4.97;2.15;;;14.70;99.90;;;;;;4978548;28;20030;-68
2023/05/11 10:08:33;;;;;;;4.03;1.95;;;14.70;99.90;;;;;;4996514;28;20073;-67
2023/05/11 10:11:01;;;;;;;4.28;2.75;;;14.70;99.90;;;;;;4978837;28;20038;-67
2023/05/11 10:13:28;;;;;;;4.95;2.28;;;14.60;99.90;;;;;;5006528;28;20041;-67
2023/05/11 10:15:56;;;;;;;3.97;2.00;;;14.40;99.90;;;;;;4978358;28;20030;-67
2023/05/11 10:18:22;;;;;;;8.50;2.28;;;14.50;99.90;;;;;;4989522;28;20113;-67
2023/05/11 10:20:48;;;;;;;3.95;2.15;;;14.60;99.90;;;;;;4978866;28;20105;-68
2023/05/11 10:23:18;;;;;;;4.90;1.90;;;15.00;99.90;;;;;;4988932;28;20394;-69
2023/05/11 10:25:44;;;;;;;7.13;2.13;;;15.00;99.90;;;;;;4978221;28;20026;-68
2023/05/11 10:28:10;;;;;;;4.65;2.63;;;14.80;99.90;;;;;;4989401;28;20049;-69
2023/05/11 10:30:37;;;;;;;7.82;2.30;;;14.60;99.90;;;;;;4977922;28;20038;-67
2023/05/11 10:33:04;;;;;;;5.78;2.50;;;14.90;99.90;;;;;;4990526;28;20090;-67
2023/05/11 10:35:30;;;;;;;4.85;2.00;;;14.80;99.90;;;;;;4977987;28;20483;-68
2023/05/11 10:37:57;;;;;;;5.68;2.67;;;14.70;99.90;;;;;;4980608;28;20088;-67
2023/05/11 10:40:23;;;;;;;2.95;1.90;;;15.00;99.90;;;;;;4977768;28;20051;-68
2023/05/11 10:43:19;;;;;;;2.92;2.10;;;15.10;99.90;;;;;;4972919;28;20038;-67
2023/05/11 10:45:53;;;;;;;8.48;2.80;;;14.80;99.90;;;;;;4977960;28;20034;-67
2023/05/11 10:48:50;;;;;;;4.55;2.20;;;14.70;99.90;;;;;;4980447;28;20042;-67
2023/05/11 10:51:30;;;;;;;4.03;2.50;;;14.90;99.90;;;;;;4975871;28;20422;-68
2023/05/11 10:54:43;;;;;;;4.70;2.35;;;14.80;99.90;;;;;;4999564;28;20038;-68
2023/05/11 10:57:13;;;;;;;4.25;2.17;;;15.00;99.90;;;;;;4977309;28;20534;-68
2023/05/11 11:00:10;;;;;;;2.50;1.63;;;15.30;99.90;;;;;;4970194;28;20386;-67
2023/05/11 11:02:37;;;;;;;15.10;3.72;;;15.70;99.90;;;;;;4991032;28;20134;-68
2023/05/11 11:05:09;;;;;;;3.97;1.92;;;15.80;99.90;;;;;;4979343;28;20027;-68
2023/05/11 11:07:58;;;;;;;3.45;1.98;;;15.40;99.90;;;;;;4989395;28;20045;-68
2023/05/11 11:10:35;;;;;;;3.72;2.10;;;15.20;99.90;;;;;;4978630;28;20027;-68
2023/05/11 11:13:08;;;;;;;3.58;2.25;;;15.40;99.90;;;;;;4981692;28;20397;-68
2023/05/11 11:15:55;;;;;;;3.65;1.65;;;15.80;99.90;;;;;;4977267;28;20038;-68
2023/05/11 11:18:25;;;;;;;7.57;2.58;;;16.20;99.90;;;;;;4980690;28;20493;-67
2023/05/11 11:20:53;;;;;;;4.25;1.80;;;16.20;99.90;;;;;;4976696;28;20130;-68
2023/05/11 11:23:38;;;;;;;3.72;1.90;;;15.60;99.90;;;;;;4989650;28;20060;-68
2023/05/11 11:26:05;;;;;;;3.95;1.67;;;16.00;99.90;;;;;;4976695;28;20533;-68
2023/05/11 11:29:07;;;;;;;3.85;1.70;;;15.90;99.90;;;;;;5005653;28;20077;-68
2023/05/11 11:31:34;;;;;;;5.28;2.08;;;16.00;99.90;;;;;;4941859;28;20034;-68
2023/05/11 11:34:39;;;;;;;3.58;1.80;;;16.20;99.90;;;;;;4973966;28;20030;-67
2023/05/11 11:37:07;;;;;;;5.28;2.10;;;16.10;99.90;;;;;;4983005;28;20457;-68
2023/05/11 11:39:42;;;;;;;7.30;1.90;;;16.20;99.90;;;;;;4984037;28;20034;-68
2023/05/11 11:42:15;;;;;;;6.00;2.53;;;16.20;99.90;;;;;;4982993;28;20055;-68
2023/05/11 11:44:43;;;;;;;3.92;2.05;;;16.20;99.90;;;;;;4991772;28;20406;-68
2023/05/11 11:47:22;;;;;;;4.72;2.55;;;16.10;99.90;;;;;;4985350;28;20027;-68
2023/05/11 11:49:53;;;;;;;2.45;1.70;;;16.50;99.90;;;;;;4970471;28;20038;-68
2023/05/11 11:52:28;;;;;;;;;;;16.40;99.90;;;;;;4999958;28;20037;-68
2023/05/11 11:54:55;;;;;;;3.72;1.67;;;16.40;99.90;;;;;;4982064;28;19996;-68
2023/05/11 11:57:33;;;;;;;3.13;1.40;;;16.50;99.90;;;;;;4974661;28;20487;-69
2023/05/11 12:00:10;;;;;;;4.30;1.80;;;16.90;99.90;;;;;;4980553;28;20065;-67
2023/05/11 12:02:41;;;;;;;2.42;1.77;;;15.60;99.90;;;;;;4989202;28;20045;-68
2023/05/11 12:05:20;;;;;;;3.35;1.83;;;16.10;99.90;;;;;;4978601;28;20031;-67
2023/05/11 12:07:50;;;;;;;4.03;1.80;;;16.30;99.90;;;;;;4977693;28;20066;-68
2023/05/11 12:10:21;;;;;;;2.05;1.60;;;15.60;99.90;;;;;;4976486;28;20039;-67
2023/05/11 12:12:56;;;;;;;6.85;1.67;;;16.10;99.90;;;;;;4979570;28;20092;-68
2023/05/11 12:15:31;;;;;;;3.90;1.90;;;16.10;99.90;;;;;;4976347;28;20035;-67
2023/05/11 12:17:57;;;;;;;3.75;1.73;;;16.50;99.90;;;;;;4979265;28;20092;-69
2023/05/11 12:20:24;;;;;;;1.85;1.20;;;16.90;99.90;;;;;;4975782;28;20122;-68
2023/05/11 12:22:50;;;;;;;9.27;1.98;;;16.50;99.90;;;;;;4988585;28;20359;-68
2023/05/11 12:25:18;;;;;;;4.90;2.08;;;16.70;99.90;;;;;;4976925;28;20027;-68
2023/05/11 12:28:00;;;;;;;4.40;1.60;;;17.40;99.90;;;;;;4987440;28;20038;-68
2023/05/11 12:30:33;;;;;;;3.83;1.73;;;16.90;99.90;;;;;;4975548;28;20031;-67
2023/05/11 12:33:00;;;;;;;2.88;1.92;;;16.80;99.90;;;;;;4987478;28;20064;-68
2023/05/11 12:35:29;;;;;;;3.38;1.65;;;17.50;99.90;;;;;;4976257;28;20648;-68
2023/05/11 12:37:56;;;;;;;4.50;1.88;;;17.90;99.90;;;;;;4980239;28;20044;-68
2023/05/11 12:40:23;;;;;;;2.72;1.30;;;17.70;99.90;;;;;;4974578;28;20491;-68
2023/05/11 12:42:54;;;;;;;6.57;2.25;;;17.10;99.90;;;;;;4988662;28;20133;-68
2023/05/11 12:45:22;;;;;;;3.42;1.80;;;16.90;99.90;;;;;;4977679;28;20057;-68
2023/05/11 12:47:51;;;;;;;16.88;2.35;;;17.60;99.90;;;;;;4982913;28;20109;-66
2023/05/11 12:50:19;;;;;;;3.60;1.23;;;17.40;99.90;;;;;;4965672;28;20106;-67
2023/05/11 12:52:45;;;;;;;2.67;1.38;;;17.50;99.90;;;;;;4991048;28;20473;-67
2023/05/11 12:55:11;;;;;;;3.08;1.42;;;17.30;99.90;;;;;;4979356;28;20379;-68
2023/05/11 12:57:39;;;;;;;4.93;1.45;;;17.20;99.90;;;;;;4991989;28;20065;-67